Time;durP1;ratioP1;P1;durP2;ratioP2;P2;SDS_P1;SDS_P2;PMS_P1;PMS_P2;Temp;Humidity;BMP_temperature;BMP_pressure;BME280_temperature;BME280_humidity;BME280_pressure;Samples;Min_cycle;Max_cycle;Signal;HPM_P1;HPM_P2
2023/08/18 00:00:00;;;;;;;13.45;10.45;;;;;;;24.22;66.36;99284.75;4406358;32;33740;-86
2023/08/18 00:02:35;;;;;;;13.35;9.68;;;;;;;24.01;67.43;99294.41;4406300;32;34085;-87
2023/08/18 00:05:03;;;;;;;12.80;9.70;;;;;;;24.23;66.90;99289.12;4392530;32;34083;-87
2023/08/18 00:07:31;;;;;;;14.05;11.10;;;;;;;24.24;66.93;99290.88;4406344;32;34316;-87
2023/08/18 00:09:58;;;;;;;13.50;10.52;;;;;;;24.05;67.84;99297.81;4416078;32;33270;-86
2023/08/18 00:12:26;;;;;;;13.23;9.93;;;;;;;24.30;67.07;99288.88;4419490;32;33192;-86
2023/08/18 00:14:54;;;;;;;12.75;10.15;;;;;;;24.38;66.94;99297.38;4421549;32;35085;-85
2023/08/18 00:17:21;;;;;;;14.55;10.60;;;;;;;24.39;67.43;99285.88;4421362;32;33423;-87
2023/08/18 00:19:49;;;;;;;13.88;10.27;;;;;;;24.51;66.84;99290.69;4420262;32;33335;-87
2023/08/18 00:22:17;;;;;;;11.43;9.32;;;;;;;24.59;66.36;99285.91;4421586;32;34532;-87
2023/08/18 00:24:44;;;;;;;13.65;9.15;;;;;;;24.60;66.44;99284.97;4392469;32;34738;-85
2023/08/18 00:27:12;;;;;;;19.83;9.75;;;;;;;24.64;66.23;99286.56;4405985;32;33933;-86
2023/08/18 00:29:40;;;;;;;15.13;10.23;;;;;;;24.66;66.41;99278.53;4404982;32;33588;-87
2023/08/18 00:32:09;;;;;;;13.77;9.90;;;;;;;24.55;66.94;99288.72;4405948;32;34634;-87
2023/08/18 00:34:37;;;;;;;15.48;10.23;;;;;;;24.68;66.65;99280.19;4392453;32;34712;-87
2023/08/18 00:37:05;;;;;;;16.10;10.27;;;;;;;24.56;67.04;99280.72;4392147;32;32974;-87
2023/08/18 00:39:32;;;;;;;15.15;10.93;;;;;;;24.63;66.86;99273.38;4420416;32;33482;-87
2023/08/18 00:42:00;;;;;;;13.48;9.55;;;;;;;24.54;67.35;99279.91;4420108;32;33766;-87
2023/08/18 00:44:27;;;;;;;13.77;10.65;;;;;;;24.50;67.61;99273.03;4421136;32;33781;-87
2023/08/18 00:46:55;;;;;;;11.73;9.60;;;;;;;24.49;67.58;99269.53;4419868;32;33819;-87
2023/08/18 00:49:24;;;;;;;15.15;9.85;;;;;;;24.62;66.92;99261.91;4419993;32;33810;-87
2023/08/18 00:51:54;;;;;;;12.93;10.05;;;;;;;24.53;66.94;99262.31;4420248;32;33810;-87
2023/08/18 00:54:23;;;;;;;14.00;9.48;;;;;;;24.50;67.01;99267.72;4421166;32;33695;-87
2023/08/18 00:56:50;;;;;;;13.25;9.65;;;;;;;24.56;66.86;99267.47;4419801;32;33833;-87
2023/08/18 00:59:18;;;;;;;15.43;10.50;;;;;;;24.41;67.52;99257.53;4410483;32;33486;-87
2023/08/18 01:01:48;;;;;;;14.02;10.25;;;;;;;24.48;67.37;99266.94;4406120;32;34055;-87
2023/08/18 01:04:15;;;;;;;14.23;10.68;;;;;;;24.38;67.69;99263.78;4392181;32;33805;-87
2023/08/18 01:06:43;;;;;;;13.48;10.27;;;;;;;24.45;67.55;99267.06;4391840;32;33508;-87
2023/08/18 01:09:11;;;;;;;13.40;9.00;;;;;;;24.44;67.34;99268.00;4414047;32;33012;-87
2023/08/18 01:11:44;;;;;;;12.88;9.90;;;;;;;24.50;66.87;99263.28;4407061;32;34005;-87
2023/08/18 01:14:30;;;;;;;15.70;9.95;;;;;;;24.36;67.37;99270.06;4420628;32;35492;-87
2023/08/18 01:17:06;;;;;;;14.82;9.48;;;;;;;24.32;67.48;99268.47;4420913;32;33717;-87
2023/08/18 01:19:35;;;;;;;11.48;9.88;;;;;;;24.36;67.31;99264.75;4418149;32;33810;-87
2023/08/18 01:22:03;;;;;;;15.80;9.30;;;;;;;24.39;67.09;99269.97;4406470;32;34366;-87
2023/08/18 01:24:32;;;;;;;14.02;9.88;;;;;;;24.39;67.15;99265.53;4418644;32;34235;-87
2023/08/18 01:26:59;;;;;;;13.95;9.40;;;;;;;24.46;66.73;99267.00;4420501;32;34698;-87
2023/08/18 01:29:27;;;;;;;11.65;9.40;;;;;;;24.32;67.08;99261.41;4420881;32;33085;-87
2023/08/18 01:32:00;;;;;;;13.85;10.05;;;;;;;24.37;66.76;99267.38;4420880;32;35121;-87
2023/08/18 01:34:29;;;;;;;12.05;9.73;;;;;;;24.40;66.70;99266.41;4411448;32;34199;-86
2023/08/18 01:36:59;;;;;;;13.07;9.80;;;;;;;24.43;66.43;99260.97;4391444;32;34157;-87
2023/08/18 01:39:27;;;;;;;12.85;10.02;;;;;;;24.35;66.64;99257.75;4405315;32;33572;-87
2023/08/18 01:41:55;;;;;;;12.57;9.43;;;;;;;24.40;66.42;99255.81;4391750;32;33621;-87
2023/08/18 01:44:22;;;;;;;12.23;9.38;;;;;;;24.45;66.26;99253.81;4405485;32;34133;-87
2023/08/18 01:46:50;;;;;;;11.05;9.45;;;;;;;24.46;66.34;99247.59;4404026;32;34891;-87
2023/08/18 01:49:18;;;;;;;11.02;9.50;;;;;;;24.39;66.56;99249.62;4416764;32;33364;-88
2023/08/18 01:51:47;;;;;;;17.85;9.82;;;;;;;24.27;67.15;99256.28;4420602;32;33739;-87
2023/08/18 01:54:15;;;;;;;11.77;9.52;;;;;;;24.33;67.00;99249.88;4419265;32;33684;-87
2023/08/18 01:56:43;;;;;;;12.48;9.13;;;;;;;24.27;67.28;99250.12;4419293;32;34018;-87
2023/08/18 01:59:13;;;;;;;13.32;9.13;;;;;;;24.16;67.87;99252.34;4420532;32;33563;-86
2023/08/18 02:01:41;;;;;;;12.07;10.18;;;;;;;24.30;67.48;99257.09;4420784;32;33675;-86
2023/08/18 02:04:09;;;;;;;13.52;10.20;;;;;;;24.35;67.33;99249.78;4408029;32;34525;-87
2023/08/18 02:06:36;;;;;;;11.55;9.63;;;;;;;24.41;67.09;99246.94;4390777;32;34079;-87
2023/08/18 02:09:05;;;;;;;9.70;8.60;;;;;;;24.39;67.19;99248.78;4391483;32;33351;-87
2023/08/18 02:11:33;;;;;;;11.57;9.43;;;;;;;24.40;67.10;99251.38;4405008;32;33781;-86
2023/08/18 02:14:00;;;;;;;11.12;9.35;;;;;;;24.41;67.04;99246.94;4404770;32;34123;-87
2023/08/18 02:16:28;;;;;;;12.43;9.32;;;;;;;24.31;67.61;99259.66;4416347;32;33716;-87
2023/08/18 02:18:55;;;;;;;11.82;9.10;;;;;;;24.41;67.12;99257.53;4406297;32;34203;-87
2023/08/18 02:21:23;;;;;;;15.40;9.73;;;;;;;24.45;67.03;99245.87;4405730;32;33956;-87
2023/08/18 02:23:51;;;;;;;13.05;8.93;;;;;;;24.52;66.69;99242.88;4406514;32;36947;-87
2023/08/18 02:26:19;;;;;;;11.68;9.27;;;;;;;24.48;67.12;99243.09;4420226;32;32543;-87
2023/08/18 02:28:47;;;;;;;13.35;8.98;;;;;;;24.39;67.74;99246.13;4419838;32;33730;-87
2023/08/18 02:31:14;;;;;;;16.05;9.70;;;;;;;24.42;67.69;99246.00;4420113;32;33924;-87
2023/08/18 02:33:42;;;;;;;11.48;9.38;;;;;;;24.40;67.86;99246.06;4419949;32;33873;-87
2023/08/18 02:36:10;;;;;;;12.90;9.32;;;;;;;24.39;68.21;99236.38;4411050;32;33513;-87
2023/08/18 02:38:39;;;;;;;12.43;9.85;;;;;;;24.44;67.94;99233.56;4406948;32;34159;-87
2023/08/18 02:41:07;;;;;;;11.68;9.52;;;;;;;24.46;68.02;99236.97;4406811;32;34797;-87
2023/08/18 02:43:37;;;;;;;15.30;9.80;;;;;;;24.32;68.66;99242.84;4392776;32;34261;-86
2023/08/18 02:46:05;;;;;;;12.63;9.85;;;;;;;24.20;69.15;99249.50;4406966;32;34673;-88
2023/08/18 02:48:33;;;;;;;14.13;10.35;;;;;;;24.25;68.92;99254.63;4406811;32;32935;-88
2023/08/18 02:51:03;;;;;;;14.10;10.25;;;;;;;24.36;68.32;99252.41;4380539;32;33286;-87
2023/08/18 02:53:31;;;;;;;12.52;10.00;;;;;;;24.56;67.43;99245.41;4421548;32;33928;-87
2023/08/18 02:55:59;;;;;;;13.73;10.07;;;;;;;24.52;67.57;99242.88;4421742;32;34003;-88
2023/08/18 02:58:28;;;;;;;11.88;9.73;;;;;;;24.35;68.19;99247.16;4407815;32;33251;-86
2023/08/18 03:00:56;;;;;;;15.70;10.25;;;;;;;24.47;67.91;99241.34;4420233;32;34103;-87
2023/08/18 03:03:25;;;;;;;13.98;10.23;;;;;;;24.50;67.84;99243.88;4420298;32;34147;-86
2023/08/18 03:05:52;;;;;;;16.37;9.90;;;;;;;24.49;68.03;99244.81;4421973;32;34506;-87
2023/08/18 03:08:20;;;;;;;15.80;9.85;;;;;;;24.71;67.38;99244.75;4421875;32;33538;-85
2023/08/18 03:10:58;;;;;;;14.98;10.27;;;;;;;24.65;67.76;99240.56;4410039;32;33527;-86
2023/08/18 03:13:26;;;;;;;13.25;10.32;;;;;;;24.42;68.77;99236.25;4406773;32;34107;-87
2023/08/18 03:15:54;;;;;;;16.20;11.00;;;;;;;24.48;68.43;99236.00;4405161;32;33746;-87
2023/08/18 03:18:22;;;;;;;13.55;9.75;;;;;;;24.43;68.72;99240.63;4392925;32;34387;-87
2023/08/18 03:20:56;;;;;;;14.48;10.57;;;;;;;24.45;68.71;99251.16;4417833;32;33868;-86
2023/08/18 03:23:25;;;;;;;15.82;11.43;;;;;;;24.57;68.58;99240.03;4392839;32;34490;-87
2023/08/18 03:26:03;;;;;;;15.52;11.45;;;;;;;24.31;69.25;99240.25;4404872;32;33960;-87
2023/08/18 03:28:36;;;;;;;13.40;11.95;;;;;;;24.17;70.04;99240.81;4422034;32;34121;-87
2023/08/18 03:31:05;;;;;;;14.68;12.30;;;;;;;24.22;69.75;99249.47;4408024;32;33632;-87
2023/08/18 03:33:34;;;;;;;13.38;11.10;;;;;;;24.27;69.49;99256.28;4408004;32;35110;-87
2023/08/18 03:36:03;;;;;;;12.65;11.15;;;;;;;24.29;69.33;99253.59;4420198;32;34268;-87
2023/08/18 03:38:30;;;;;;;14.48;10.85;;;;;;;24.45;68.32;99248.53;4418728;32;34370;-87
2023/08/18 03:41:02;;;;;;;17.20;11.98;;;;;;;24.35;68.53;99255.94;4420037;32;33732;-87
2023/08/18 03:43:31;;;;;;;12.93;10.95;;;;;;;24.31;68.68;99259.66;4420032;32;33708;-87
2023/08/18 03:46:02;;;;;;;13.85;10.93;;;;;;;24.36;68.27;99256.81;4407173;32;33436;-87
2023/08/18 03:48:31;;;;;;;15.60;11.25;;;;;;;24.32;68.27;99252.56;4420412;32;34130;-87
2023/08/18 03:50:58;;;;;;;15.05;11.30;;;;;;;24.36;68.02;99255.06;4420797;32;33650;-87
2023/08/18 03:53:26;;;;;;;12.25;11.05;;;;;;;24.25;68.40;99252.84;4421428;32;34766;-87
2023/08/18 03:55:59;;;;;;;16.17;10.45;;;;;;;24.27;68.31;99250.12;4421618;32;34851;-87
2023/08/18 03:58:27;;;;;;;13.60;10.10;;;;;;;24.30;68.17;99254.44;4408164;32;33727;-87
2023/08/18 04:01:06;;;;;;;12.77;10.75;;;;;;;24.34;67.89;99245.44;4419971;32;33469;-87
2023/08/18 04:03:35;;;;;;;12.70;10.55;;;;;;;24.22;68.45;99252.97;4407736;32;34063;-87
2023/08/18 04:06:03;;;;;;;15.45;11.07;;;;;;;24.22;68.30;99252.13;4406452;32;33279;-87
2023/08/18 04:08:40;;;;;;;15.68;11.00;;;;;;;24.24;68.17;99252.88;4405050;32;33693;-87
2023/08/18 04:11:12;;;;;;;12.85;10.35;;;;;;;24.32;68.00;99252.56;4404895;32;33778;-87
2023/08/18 04:13:40;;;;;;;12.82;10.57;;;;;;;24.21;68.32;99248.59;4392552;32;34759;-87
2023/08/18 04:16:07;;;;;;;13.57;10.15;;;;;;;24.19;68.27;99252.22;4397183;32;33097;-87
2023/08/18 04:18:36;;;;;;;12.40;10.05;;;;;;;24.22;68.26;99252.13;4405634;32;32555;-87
2023/08/18 04:21:03;;;;;;;14.48;10.50;;;;;;;24.13;68.63;99258.66;4403155;32;33571;-87
2023/08/18 04:23:31;;;;;;;11.90;10.13;;;;;;;24.22;68.36;99250.31;4406146;32;34522;-87
2023/08/18 04:26:00;;;;;;;14.93;10.18;;;;;;;24.25;68.15;99246.69;4392251;32;33058;-87
2023/08/18 04:28:29;;;;;;;13.93;10.10;;;;;;;24.25;68.12;99244.91;4415133;32;33622;-87
2023/08/18 04:30:58;;;;;;;12.10;9.38;;;;;;;24.27;68.21;99250.97;4391883;32;33832;-87
2023/08/18 04:33:27;;;;;;;12.77;9.10;;;;;;;24.32;68.10;99244.63;4404861;32;34769;-87
2023/08/18 04:35:55;;;;;;;13.38;9.43;;;;;;;24.43;67.71;99247.72;4404885;32;32956;-87
2023/08/18 04:38:23;;;;;;;11.63;8.73;;;;;;;24.61;67.51;99243.41;4412427;32;33035;-88
2023/08/18 04:40:58;;;;;;;11.32;9.00;;;;;;;24.78;67.00;99240.91;4395019;32;33185;-87
2023/08/18 04:43:26;;;;;;;13.50;9.10;;;;;;;24.85;66.40;99237.06;4419904;32;33894;-87
2023/08/18 04:45:55;;;;;;;11.73;8.48;;;;;;;24.85;66.16;99247.66;4394511;32;32541;-87
2023/08/18 04:48:23;;;;;;;10.43;8.63;;;;;;;24.99;66.12;99247.88;4419980;32;32899;-87
2023/08/18 04:50:50;;;;;;;14.57;9.10;;;;;;;25.17;65.86;99240.06;4404493;32;33017;-87
2023/08/18 04:53:18;;;;;;;14.85;8.73;;;;;;;25.54;64.81;99241.88;4405918;32;34033;-87
2023/08/18 04:55:46;;;;;;;11.27;8.27;;;;;;;25.79;64.25;99246.87;4404557;32;33756;-87
2023/08/18 04:58:15;;;;;;;10.50;8.32;;;;;;;25.93;64.13;99240.91;4402794;32;33477;-87
2023/08/18 05:00:43;;;;;;;10.85;8.57;;;;;;;26.41;62.82;99244.72;4416904;32;33688;-87
2023/08/18 05:03:11;;;;;;;14.48;8.93;;;;;;;26.60;61.51;99240.22;4418719;32;34778;-87
2023/08/18 05:06:08;;;;;;;12.30;8.98;;;;;;;26.58;61.85;99246.53;4407207;32;33602;-87
2023/08/18 05:08:39;;;;;;;10.23;8.68;;;;;;;26.87;60.48;99258.34;4404280;32;33901;-87
2023/08/18 05:11:08;;;;;;;11.23;8.82;;;;;;;27.13;60.21;99262.31;4407250;32;32713;-87
2023/08/18 05:13:38;;;;;;;14.35;8.85;;;;;;;27.23;60.01;99260.00;4419806;32;34187;-87
2023/08/18 05:16:06;;;;;;;10.02;7.65;;;;;;;27.44;57.20;99257.97;4406904;32;33561;-87
2023/08/18 05:18:33;;;;;;;11.20;8.07;;;;;;;27.17;56.30;99275.38;4404304;32;32538;-87
2023/08/18 05:21:02;;;;;;;10.77;8.95;;;;;;;27.36;57.67;99266.38;4404021;32;32823;-87
2023/08/18 05:23:30;;;;;;;10.52;8.48;;;;;;;26.91;57.94;99270.53;4404119;32;33827;-87
2023/08/18 05:25:59;;;;;;;12.82;8.63;;;;;;;27.42;57.78;99268.69;4391585;32;32583;-87
2023/08/18 05:28:28;;;;;;;14.45;8.57;;;;;;;27.04;57.06;99271.59;4405359;32;33374;-87
2023/08/18 05:30:55;;;;;;;12.35;8.13;;;;;;;27.18;55.85;99268.22;4416641;32;33838;-88
2023/08/18 05:33:23;;;;;;;11.80;8.02;;;;;;;26.56;57.61;99269.72;4416631;32;34645;-87
2023/08/18 05:35:51;;;;;;;10.57;7.65;;;;;;;26.35;57.26;99266.28;4416697;32;34320;-87
2023/08/18 05:38:18;;;;;;;10.20;7.25;;;;;;;26.04;58.30;99266.97;4416380;32;34041;-88
2023/08/18 05:40:48;;;;;;;14.23;7.90;;;;;;;26.62;57.58;99269.37;4417129;32;33680;-86
2023/08/18 05:43:18;;;;;;;15.00;7.45;;;;;;;26.02;58.86;99285.63;4404592;32;34025;-86
2023/08/18 05:45:48;;;;;;;11.70;8.70;;;;;;;26.10;58.10;99288.78;4406007;32;34082;-87
2023/08/18 05:48:15;;;;;;;10.20;7.82;;;;;;;25.58;60.07;99291.25;4403819;32;32947;-87
2023/08/18 05:50:43;;;;;;;12.57;8.52;;;;;;;25.65;59.01;99291.81;4416698;32;32578;-88
2023/08/18 05:53:11;;;;;;;12.57;8.10;;;;;;;25.48;59.96;99292.59;4405424;32;33841;-90
2023/08/18 05:55:39;;;;;;;12.57;8.50;;;;;;;25.56;59.48;99301.06;4405110;32;33830;-86
2023/08/18 05:58:07;;;;;;;17.12;8.60;;;;;;;25.83;59.64;99295.41;4405034;32;34208;-87
2023/08/18 06:00:35;;;;;;;9.20;7.47;;;;;;;26.00;58.66;99291.97;4405243;32;34402;-88
2023/08/18 06:03:02;;;;;;;11.82;7.80;;;;;;;26.12;58.91;99296.66;4407947;32;34152;-87
2023/08/18 06:05:30;;;;;;;12.27;7.65;;;;;;;26.35;58.16;99285.75;4404789;32;34591;-87
2023/08/18 06:07:57;;;;;;;10.25;7.57;;;;;;;26.57;57.64;99287.38;4403633;32;33151;-87
2023/08/18 06:10:25;;;;;;;9.98;7.65;;;;;;;26.64;57.71;99284.31;4417560;32;33835;-87
2023/08/18 06:12:53;;;;;;;9.82;7.32;;;;;;;26.81;55.85;99279.94;4404621;32;34785;-87
2023/08/18 06:15:21;;;;;;;12.48;8.30;;;;;;;27.02;56.74;99278.81;4406772;32;34513;-88
2023/08/18 06:17:49;;;;;;;10.50;7.45;;;;;;;26.98;56.99;99276.41;4402604;32;34164;-87
2023/08/18 06:20:16;;;;;;;17.27;8.95;;;;;;;26.75;56.03;99277.59;4404916;32;34063;-88
2023/08/18 06:22:44;;;;;;;9.57;7.78;;;;;;;26.71;56.46;99276.91;4405557;32;35273;-87
2023/08/18 06:25:12;;;;;;;10.43;7.10;;;;;;;26.97;56.32;99275.50;4407361;32;33692;-89
2023/08/18 06:27:40;;;;;;;11.10;7.72;;;;;;;26.98;55.23;99287.91;4408066;32;33165;-88
2023/08/18 06:30:08;;;;;;;9.55;7.40;;;;;;;26.94;55.33;99278.34;4422290;32;33696;-88
2023/08/18 06:32:35;;;;;;;13.15;8.35;;;;;;;26.97;55.96;99277.31;4408155;32;33605;-89
2023/08/18 06:35:03;;;;;;;11.82;7.90;;;;;;;26.67;56.18;99272.69;4421870;32;33559;-89
2023/08/18 06:37:31;;;;;;;9.25;6.82;;;;;;;26.40;56.37;99272.22;4420715;32;33548;-88
2023/08/18 06:39:59;;;;;;;10.02;7.53;;;;;;;26.74;54.26;99275.84;4421904;32;34789;-88
2023/08/18 06:42:26;;;;;;;9.52;7.10;;;;;;;26.29;56.36;99267.47;4421906;32;35033;-89
2023/08/18 06:44:54;;;;;;;8.63;6.57;;;;;;;26.32;56.41;99271.75;4422137;32;33979;-88
2023/08/18 06:47:23;;;;;;;10.23;7.30;;;;;;;26.10;57.15;99272.84;4422074;32;33362;-89
2023/08/18 06:49:50;;;;;;;8.90;6.68;;;;;;;26.56;54.28;99281.19;4420776;32;33992;-88
2023/08/18 06:52:18;;;;;;;11.40;6.97;;;;;;;26.44;55.76;99279.09;4421924;32;34212;-88
2023/08/18 06:54:47;;;;;;;12.00;7.03;;;;;;;26.77;55.01;99281.88;4408139;32;34615;-88
2023/08/18 06:57:14;;;;;;;11.23;7.75;;;;;;;26.76;54.88;99285.50;4420350;32;33071;-87
2023/08/18 06:59:42;;;;;;;13.27;7.47;;;;;;;26.97;55.00;99286.16;4421745;32;33755;-88
2023/08/18 07:02:10;;;;;;;10.05;7.90;;;;;;;26.69;55.39;99284.94;4421840;32;34947;-88
2023/08/18 07:04:37;;;;;;;12.70;7.53;;;;;;;26.66;55.36;99300.19;4421609;32;34538;-88
2023/08/18 07:07:04;;;;;;;12.88;7.82;;;;;;;26.93;55.29;99289.91;4421948;32;33282;-88
2023/08/18 07:09:32;;;;;;;10.70;7.30;;;;;;;27.12;53.98;99289.84;4407882;32;34313;-88
2023/08/18 07:12:00;;;;;;;11.68;7.72;;;;;;;26.92;55.87;99282.88;4395173;32;32817;-87
2023/08/18 07:14:45;;;;;;;11.75;7.72;;;;;;;26.95;54.77;99289.84;4407797;32;33184;-87
2023/08/18 07:17:12;;;;;;;10.32;8.02;;;;;;;26.92;55.16;99294.38;4420461;32;34121;-88
2023/08/18 07:19:40;;;;;;;13.15;8.07;;;;;;;26.52;55.99;99292.03;4421784;32;33943;-88
2023/08/18 07:22:08;;;;;;;11.93;8.20;;;;;;;27.08;56.00;99299.75;4406906;32;34113;-87
2023/08/18 07:24:35;;;;;;;12.10;8.07;;;;;;;26.99;56.18;99294.94;4420055;32;34042;-88
2023/08/18 07:27:04;;;;;;;11.20;8.23;;;;;;;27.29;55.16;99304.94;4421668;32;33214;-88
2023/08/18 07:29:33;;;;;;;13.60;8.20;;;;;;;27.06;55.83;99301.66;4407591;32;34027;-87
2023/08/18 07:32:01;;;;;;;10.43;7.37;;;;;;;27.61;54.32;99304.03;4401416;32;32843;-87
2023/08/18 07:34:29;;;;;;;10.30;8.02;;;;;;;27.62;54.46;99304.91;4385370;32;33402;-85
2023/08/18 07:36:56;;;;;;;10.73;8.45;;;;;;;27.55;54.35;99303.53;4417574;32;34442;-86
2023/08/18 07:39:24;;;;;;;13.15;8.73;;;;;;;27.33;54.02;99317.13;4418054;32;33585;-87
2023/08/18 07:41:52;;;;;;;11.57;8.80;;;;;;;26.88;55.15;99310.59;4407105;32;34801;-87
2023/08/18 07:44:19;;;;;;;9.55;7.93;;;;;;;27.20;54.21;99318.72;4411357;32;33629;-87
2023/08/18 07:46:47;;;;;;;12.60;7.95;;;;;;;27.65;53.83;99316.25;4418456;32;34300;-87
2023/08/18 07:49:14;;;;;;;13.73;8.07;;;;;;;27.64;53.24;99319.84;4416805;32;33103;-87
2023/08/18 07:51:43;;;;;;;14.68;8.48;;;;;;;28.17;53.41;99317.81;4411980;32;33809;-86
2023/08/18 07:54:10;;;;;;;14.18;8.65;;;;;;;28.11;52.70;99321.69;4392148;32;33399;-89
2023/08/18 07:56:40;;;;;;;12.05;9.13;;;;;;;28.20;53.65;99333.62;4405367;32;33417;-84
2023/08/18 07:59:08;;;;;;;13.50;8.77;;;;;;;27.64;53.09;99337.63;4406284;32;34379;-87
2023/08/18 08:01:35;;;;;;;12.68;8.85;;;;;;;27.11;54.85;99326.25;4413453;32;33474;-83
2023/08/18 08:04:03;;;;;;;11.93;9.10;;;;;;;26.85;55.43;99345.31;4414403;32;33834;-87
2023/08/18 08:06:31;;;;;;;14.65;7.78;;;;;;;26.90;56.34;99353.94;4406555;32;33359;-88
2023/08/18 08:08:58;;;;;;;13.27;8.68;;;;;;;27.13;56.69;99345.66;4406118;32;34557;-87
2023/08/18 08:11:26;;;;;;;11.73;8.27;;;;;;;27.06;55.52;99344.22;4406173;32;33735;-87
2023/08/18 08:13:54;;;;;;;9.38;7.90;;;;;;;27.52;54.39;99356.94;4406365;32;35019;-87
2023/08/18 08:16:21;;;;;;;14.87;8.77;;;;;;;27.18;55.80;99342.75;4411789;32;33966;-88
2023/08/18 08:18:49;;;;;;;13.35;8.48;;;;;;;27.31;55.79;99351.81;4407802;32;33872;-86
2023/08/18 08:21:16;;;;;;;17.25;9.50;;;;;;;27.17;55.37;99349.03;4421581;32;34618;-87
2023/08/18 08:23:44;;;;;;;11.48;8.57;;;;;;;27.31;55.80;99353.59;4412507;32;34604;-88
2023/08/18 08:26:15;;;;;;;10.63;8.88;;;;;;;27.30;56.69;99359.88;4406395;32;33658;-87
2023/08/18 08:28:44;;;;;;;12.75;8.52;;;;;;;27.04;54.48;99356.75;4404119;32;33862;-87
2023/08/18 08:31:11;;;;;;;11.45;8.52;;;;;;;27.06;55.12;99359.34;4406082;32;34855;-87
2023/08/18 08:33:39;;;;;;;13.35;9.25;;;;;;;27.32;55.83;99366.00;4406061;32;33802;-88
2023/08/18 08:36:06;;;;;;;12.07;8.68;;;;;;;27.46;55.65;99374.09;4405961;32;34104;-88
2023/08/18 08:38:34;;;;;;;10.43;8.13;;;;;;;27.32;54.91;99371.31;4417666;32;32753;-85
2023/08/18 08:41:02;;;;;;;12.82;8.05;;;;;;;27.62;53.91;99368.81;4406182;32;34660;-87
2023/08/18 08:43:30;;;;;;;11.57;8.70;;;;;;;27.79;55.56;99360.78;4414401;32;34150;-87
2023/08/18 08:46:00;;;;;;;16.23;9.60;;;;;;;27.81;54.43;99355.41;4407524;32;32381;-87
2023/08/18 08:48:32;;;;;;;12.52;8.35;;;;;;;28.11;53.80;99368.81;4407791;32;33939;-88
2023/08/18 08:51:03;;;;;;;13.57;8.98;;;;;;;28.08;53.71;99367.19;4394655;32;33955;-88
2023/08/18 08:53:47;;;;;;;10.65;8.75;;;;;;;28.28;53.71;99362.53;4407337;32;33462;-87
2023/08/18 08:56:17;;;;;;;15.35;9.63;;;;;;;28.19;53.50;99357.72;4420030;32;34149;-88
2023/08/18 08:58:45;;;;;;;11.68;8.85;;;;;;;28.26;53.78;99354.63;4419964;32;34589;-87
2023/08/18 09:01:13;;;;;;;13.23;9.80;;;;;;;28.16;53.06;99347.22;4421531;32;34002;-87
2023/08/18 09:03:43;;;;;;;12.25;9.18;;;;;;;27.97;52.99;99348.25;4407424;32;33914;-87
2023/08/18 09:06:13;;;;;;;14.02;9.70;;;;;;;27.78;53.95;99347.56;4408014;32;34063;-91
2023/08/18 09:08:41;;;;;;;12.27;9.25;;;;;;;27.77;55.01;99345.81;4420381;32;33290;-88
2023/08/18 09:11:09;;;;;;;12.65;10.05;;;;;;;28.04;53.42;99340.78;4421544;32;34231;-86
2023/08/18 09:13:37;;;;;;;15.82;10.20;;;;;;;27.49;54.09;99341.12;4407549;32;33868;-87
2023/08/18 09:16:06;;;;;;;11.68;9.77;;;;;;;27.47;54.98;99343.88;4419727;32;32893;-87
2023/08/18 09:18:34;;;;;;;12.50;9.77;;;;;;;28.02;54.97;99332.88;4419821;32;34359;-87
2023/08/18 09:21:04;;;;;;;13.38;9.70;;;;;;;27.78;53.66;99331.59;4419810;32;33436;-87
2023/08/18 09:23:32;;;;;;;16.73;10.25;;;;;;;27.99;53.79;99327.69;4419673;32;34150;-87
2023/08/18 09:25:59;;;;;;;19.48;10.05;;;;;;;27.65;53.35;99326.91;4419935;32;33548;-86
2023/08/18 09:28:29;;;;;;;14.87;10.77;;;;;;;27.85;53.76;99332.97;4420768;32;34591;-87
2023/08/18 09:30:56;;;;;;;12.37;9.38;;;;;;;27.68;52.39;99319.66;4394824;32;33383;-88
2023/08/18 09:33:26;;;;;;;10.15;8.68;;;;;;;27.68;52.84;99325.00;4421098;32;34022;-87
2023/08/18 09:36:00;;;;;;;11.90;8.80;;;;;;;27.88;52.16;99328.31;4394992;32;32151;-86
2023/08/18 09:38:29;;;;;;;11.73;8.52;;;;;;;27.96;52.64;99335.91;4419604;32;34440;-87
2023/08/18 09:41:03;;;;;;;12.10;9.20;;;;;;;28.18;54.11;99332.00;4419855;32;33984;-88
2023/08/18 09:43:30;;;;;;;12.68;9.60;;;;;;;28.34;53.42;99332.84;4420237;32;34579;-87
2023/08/18 09:45:58;;;;;;;12.52;11.23;;;;;;;28.47;52.88;99328.56;4394332;32;32945;-87
2023/08/18 09:48:26;;;;;;;13.50;10.45;;;;;;;27.95;52.61;99339.47;4420875;32;33659;-88
2023/08/18 09:50:57;;;;;;;14.65;11.20;;;;;;;28.27;53.45;99334.16;4394629;32;33869;-87
2023/08/18 09:53:29;;;;;;;16.12;11.05;;;;;;;27.82;52.98;99338.47;4420826;32;34884;-87
2023/08/18 09:55:59;;;;;;;22.08;10.85;;;;;;;27.63;53.92;99335.91;4406949;32;33653;-87
2023/08/18 09:58:32;;;;;;;18.33;10.30;;;;;;;27.88;53.99;99330.09;4406774;32;33955;-87
2023/08/18 10:01:02;;;;;;;14.20;10.25;;;;;;;27.99;53.45;99335.69;4406553;32;33550;-87
2023/08/18 10:03:30;;;;;;;14.25;11.00;;;;;;;28.09;53.99;99333.38;4406476;32;32724;-88
2023/08/18 10:05:58;;;;;;;13.93;11.65;;;;;;;27.95;53.15;99334.16;4394356;32;32048;-87
2023/08/18 10:08:26;;;;;;;12.50;10.45;;;;;;;27.92;53.36;99323.69;4406800;32;33378;-87
2023/08/18 10:10:54;;;;;;;13.18;9.73;;;;;;;28.27;53.37;99329.69;4419225;32;34663;-87
2023/08/18 10:13:21;;;;;;;14.35;11.00;;;;;;;28.65;52.35;99323.09;4406746;32;33627;-88
2023/08/18 10:15:49;;;;;;;14.27;10.90;;;;;;;28.47;52.24;99320.53;4419061;32;33972;-87
2023/08/18 10:18:17;;;;;;;14.18;10.27;;;;;;;28.74;51.06;99317.19;4393369;32;34097;-87
2023/08/18 10:20:49;;;;;;;14.77;10.57;;;;;;;28.52;51.73;99321.13;4406608;32;33956;-87
2023/08/18 10:23:18;;;;;;;15.15;12.15;;;;;;;28.78;52.31;99324.06;4406346;32;33735;-87
2023/08/18 10:25:50;;;;;;;14.43;10.90;;;;;;;29.05;51.63;99317.09;4393776;32;32069;-88
2023/08/18 10:28:19;;;;;;;14.93;10.38;;;;;;;29.09;51.29;99317.78;4406637;32;33118;-87
2023/08/18 10:30:54;;;;;;;14.93;10.63;;;;;;;29.05;52.68;99308.22;4418910;32;33738;-87
2023/08/18 10:33:49;;;;;;;12.63;10.55;;;;;;;29.13;52.07;99308.63;4393862;32;32984;-87
2023/08/18 10:36:21;;;;;;;14.57;9.77;;;;;;;29.27;51.25;99315.78;4392051;32;32843;-88
2023/08/18 10:38:51;;;;;;;15.65;10.77;;;;;;;29.60;50.63;99312.88;4406405;32;33573;-87
2023/08/18 10:41:25;;;;;;;14.80;9.90;;;;;;;29.30;50.71;99311.12;4418828;32;33770;-91
2023/08/18 10:43:57;;;;;;;14.13;10.82;;;;;;;29.38;50.10;99307.97;4419076;32;33765;-87
2023/08/18 10:46:35;;;;;;;16.30;11.35;;;;;;;29.11;49.39;99299.87;4406554;32;33352;-88
2023/08/18 10:49:03;;;;;;;16.98;11.43;;;;;;;29.06;50.89;99308.16;4393691;32;32612;-87
2023/08/18 10:51:33;;;;;;;13.57;10.60;;;;;;;29.13;50.63;99300.59;4418755;32;33387;-87
2023/08/18 10:54:00;;;;;;;18.70;10.55;;;;;;;29.50;50.32;99306.34;4418795;32;34014;-88
2023/08/18 10:56:29;;;;;;;12.95;9.85;;;;;;;29.43;49.96;99307.69;4421694;32;32898;-87
2023/08/18 10:58:56;;;;;;;13.48;9.50;;;;;;;29.16;50.35;99296.91;4421997;32;33805;-88
2023/08/18 11:01:24;;;;;;;12.50;10.68;;;;;;;28.99;52.43;99297.94;4421910;32;34938;-87
2023/08/18 11:03:52;;;;;;;14.65;9.93;;;;;;;29.29;49.79;99293.38;4422110;32;33388;-86
2023/08/18 11:06:20;;;;;;;11.50;8.73;;;;;;;29.39;49.19;99293.66;4422317;32;33480;-88
2023/08/18 11:08:48;;;;;;;10.93;8.93;;;;;;;29.51;49.06;99281.34;4407891;32;34545;-87
2023/08/18 11:11:15;;;;;;;10.40;8.20;;;;;;;29.44;50.57;99286.22;4422067;32;33646;-88
2023/08/18 11:13:44;;;;;;;11.85;7.47;;;;;;;29.79;49.50;99285.81;4420868;32;34501;-88
2023/08/18 11:16:11;;;;;;;9.38;7.15;;;;;;;30.08;46.91;99296.41;4407655;32;31896;-88
2023/08/18 11:18:42;;;;;;;8.82;7.72;;;;;;;30.09;44.72;99290.13;4408074;32;34627;-87
2023/08/18 11:21:10;;;;;;;10.45;7.22;;;;;;;30.17;44.58;99291.38;4420761;32;33546;-88
2023/08/18 11:23:37;;;;;;;12.43;7.60;;;;;;;29.83;46.19;99298.03;4420625;32;34567;-87
2023/08/18 11:26:05;;;;;;;9.60;7.70;;;;;;;29.69;46.69;99295.38;4421912;32;33932;-86
2023/08/18 11:28:33;;;;;;;10.15;7.82;;;;;;;29.41;48.32;99285.56;4407701;32;32518;-88
2023/08/18 11:31:05;;;;;;;12.85;8.40;;;;;;;29.47;49.15;99288.72;4407752;32;34696;-87